Time;durP1;ratioP1;P1;durP2;ratioP2;P2;SDS_P1;SDS_P2;PMS_P1;PMS_P2;Temp;Humidity;BMP_temperature;BMP_pressure;BME280_temperature;BME280_humidity;BME280_pressure;Samples;Min_cycle;Max_cycle;Signal;HPM_P1;HPM_P2
2020/12/26 00:01:30;;;;;;;0.40;0.40;;;2.90;95.00;;;;;;4175818;28;20041;-84
2020/12/26 00:03:31;;;;;;;0.77;0.65;;;2.90;95.10;;;;;;4163485;28;20140;-85
2020/12/26 00:05:32;;;;;;;0.20;0.20;;;2.90;95.10;;;;;;4146596;28;20056;-85
2020/12/26 00:07:34;;;;;;;0.90;0.43;;;2.90;95.10;;;;;;4149620;28;20054;-86
2020/12/26 00:09:35;;;;;;;0.20;0.20;;;2.90;94.90;;;;;;4171900;28;20042;-85
2020/12/26 00:11:36;;;;;;;0.45;0.45;;;2.90;95.10;;;;;;4174523;28;20438;-85
2020/12/26 00:13:38;;;;;;;0.10;0.10;;;2.90;95.00;;;;;;4186427;28;20049;-85
2020/12/26 00:15:39;;;;;;;0.22;0.22;;;2.90;95.00;;;;;;4162157;28;20129;-86
2020/12/26 00:17:40;;;;;;;0.25;0.25;;;2.90;95.30;;;;;;4149142;28;20042;-86
2020/12/26 00:19:42;;;;;;;0.60;0.60;;;2.80;95.30;;;;;;4161031;28;20104;-86
2020/12/26 00:21:43;;;;;;;0.22;0.22;;;2.80;95.30;;;;;;4166809;28;20410;-86
2020/12/26 00:23:45;;;;;;;0.30;0.30;;;2.80;95.20;;;;;;4177488;28;20055;-85
2020/12/26 00:25:47;;;;;;;0.38;0.38;;;2.80;95.20;;;;;;4179004;28;20041;-85
2020/12/26 00:27:48;;;;;;;0.30;0.30;;;2.80;95.30;;;;;;4163390;28;20048;-86
2020/12/26 00:29:49;;;;;;;0.30;0.30;;;2.80;95.40;;;;;;4160792;28;20159;-84
2020/12/26 00:31:51;;;;;;;3.85;0.40;;;2.80;95.30;;;;;;4172102;28;20069;-84
2020/12/26 00:33:52;;;;;;;1.75;0.52;;;2.70;95.50;;;;;;4171460;28;20053;-85
2020/12/26 00:35:53;;;;;;;2.17;0.52;;;2.70;95.50;;;;;;4145964;28;20264;-86
2020/12/26 00:37:54;;;;;;;0.30;0.30;;;2.70;95.60;;;;;;4145695;28;20050;-84
2020/12/26 00:39:56;;;;;;;0.10;0.10;;;2.70;95.80;;;;;;4142741;28;20073;-85
2020/12/26 00:41:58;;;;;;;2.50;1.30;;;2.70;95.80;;;;;;4195144;28;20049;-85
2020/12/26 00:43:59;;;;;;;1.55;0.82;;;2.70;95.90;;;;;;4146245;28;20053;-85
2020/12/26 00:46:00;;;;;;;0.30;0.30;;;2.60;95.90;;;;;;4146319;28;20046;-85
2020/12/26 00:48:01;;;;;;;0.20;0.20;;;2.60;95.80;;;;;;4179413;28;20452;-85
2020/12/26 00:50:03;;;;;;;0.20;0.20;;;2.70;95.90;;;;;;4176323;28;20051;-85
2020/12/26 00:52:04;;;;;;;0.43;0.43;;;2.60;95.90;;;;;;4193003;28;20051;-85
2020/12/26 00:54:06;;;;;;;0.45;0.45;;;2.60;95.80;;;;;;4163595;28;20053;-85
2020/12/26 00:56:07;;;;;;;0.40;0.40;;;2.60;95.90;;;;;;4179110;28;20079;-86
2020/12/26 00:58:09;;;;;;;1.33;0.60;;;2.60;95.80;;;;;;4171252;28;20076;-85
2020/12/26 01:00:11;;;;;;;0.10;0.10;;;2.60;95.90;;;;;;4163505;28;20057;-85
2020/12/26 01:02:12;;;;;;;0.20;0.20;;;2.60;96.00;;;;;;4168270;28;20045;-85
2020/12/26 01:04:13;;;;;;;0.47;0.45;;;2.60;95.90;;;;;;4139831;28;20168;-85
2020/12/26 01:06:15;;;;;;;0.13;0.13;;;2.60;95.90;;;;;;4146387;28;20064;-85
2020/12/26 01:08:16;;;;;;;0.13;0.13;;;2.60;96.10;;;;;;4145221;28;20057;-86
2020/12/26 01:10:18;;;;;;;0.30;0.30;;;2.60;96.10;;;;;;4145799;28;20042;-85
2020/12/26 01:12:19;;;;;;;0.10;0.10;;;2.60;96.20;;;;;;4176343;28;20059;-86
2020/12/26 01:14:20;;;;;;;1.55;0.55;;;2.60;96.20;;;;;;4180744;28;20055;-86
2020/12/26 01:16:22;;;;;;;0.40;0.40;;;2.60;95.90;;;;;;4187009;28;20489;-85
2020/12/26 01:18:24;;;;;;;0.22;0.22;;;2.50;96.00;;;;;;4162906;28;22422;-85
2020/12/26 01:20:25;;;;;;;0.35;0.30;;;2.50;96.10;;;;;;4178355;28;20065;-85
2020/12/26 01:22:26;;;;;;;1.38;0.73;;;2.60;95.90;;;;;;4145456;28;20077;-86
2020/12/26 01:24:27;;;;;;;3.65;0.47;;;2.60;96.00;;;;;;4166485;28;20143;-85
2020/12/26 01:26:29;;;;;;;0.20;0.20;;;2.60;96.10;;;;;;4167922;28;20137;-85
2020/12/26 01:28:30;;;;;;;0.40;0.28;;;2.60;96.10;;;;;;4162423;28;20041;-86
2020/12/26 01:30:31;;;;;;;0.20;0.20;;;2.60;96.10;;;;;;4182306;28;20136;-85
2020/12/26 01:32:32;;;;;;;0.30;0.30;;;2.60;96.10;;;;;;4174576;28;20598;-85
2020/12/26 01:34:34;;;;;;;0.25;0.25;;;2.60;96.10;;;;;;4173524;28;20504;-86
2020/12/26 01:36:35;;;;;;;0.20;0.20;;;2.60;96.10;;;;;;4167004;28;20044;-86
2020/12/26 01:38:37;;;;;;;1.45;1.17;;;2.60;96.20;;;;;;4148081;28;20081;-85
2020/12/26 01:40:38;;;;;;;0.35;0.35;;;2.60;96.30;;;;;;4172668;28;20125;-85
2020/12/26 01:42:39;;;;;;;0.35;0.35;;;2.60;96.30;;;;;;4165944;28;20057;-85
2020/12/26 01:44:41;;;;;;;0.20;0.20;;;2.60;96.40;;;;;;4195876;28;20068;-85
2020/12/26 01:46:42;;;;;;;0.50;0.50;;;2.60;96.50;;;;;;4162469;28;20057;-85
2020/12/26 01:48:43;;;;;;;0.22;0.22;;;2.60;96.60;;;;;;4136815;28;20073;-85
2020/12/26 01:50:44;;;;;;;0.40;0.40;;;2.60;96.60;;;;;;4160396;28;20053;-85
2020/12/26 01:52:47;;;;;;;0.30;0.30;;;2.60;96.70;;;;;;4147230;28;20549;-83
2020/12/26 01:54:48;;;;;;;0.45;0.40;;;2.60;96.80;;;;;;4143619;28;20057;-86
2020/12/26 01:56:49;;;;;;;0.50;0.50;;;2.60;96.80;;;;;;4180664;28;20044;-85
2020/12/26 01:58:51;;;;;;;0.40;0.40;;;2.60;96.90;;;;;;4173828;28;20539;-85
2020/12/26 02:00:52;;;;;;;0.20;0.20;;;2.50;97.00;;;;;;4172351;28;20041;-85
2020/12/26 02:02:53;;;;;;;0.17;0.17;;;2.50;96.90;;;;;;4143291;28;20128;-86
2020/12/26 02:04:55;;;;;;;0.45;0.45;;;2.60;96.80;;;;;;4147825;28;20052;-85
2020/12/26 02:06:59;;;;;;;0.20;0.20;;;2.60;96.90;;;;;;4165382;28;20132;-86
2020/12/26 02:09:01;;;;;;;0.20;0.20;;;2.60;96.90;;;;;;4149666;28;20137;-85
2020/12/26 02:11:05;;;;;;;0.20;0.20;;;2.60;97.00;;;;;;4163626;28;20128;-85
2020/12/26 02:13:06;;;;;;;0.22;0.22;;;2.50;97.00;;;;;;4178957;28;20511;-85
2020/12/26 02:15:11;;;;;;;0.40;0.40;;;2.50;97.10;;;;;;4140678;28;20054;-86
2020/12/26 02:17:13;;;;;;;3.35;3.00;;;2.50;97.10;;;;;;4165383;28;20049;-85
2020/12/26 02:19:17;;;;;;;0.52;0.52;;;2.50;97.10;;;;;;4173708;28;20065;-86
2020/12/26 02:21:18;;;;;;;0.45;0.45;;;2.50;97.00;;;;;;4167514;28;20058;-85
2020/12/26 02:23:19;;;;;;;0.40;0.40;;;2.50;96.90;;;;;;4169153;28;20060;-85
2020/12/26 02:25:20;;;;;;;0.40;0.40;;;2.50;97.00;;;;;;4179135;28;20037;-85
2020/12/26 02:27:22;;;;;;;0.30;0.30;;;2.50;97.00;;;;;;4166296;28;20140;-86
2020/12/26 02:29:24;;;;;;;0.20;0.20;;;2.50;97.00;;;;;;4165215;28;20054;-85
2020/12/26 02:31:25;;;;;;;0.40;0.40;;;2.50;96.90;;;;;;4170465;28;20484;-84
2020/12/26 02:33:26;;;;;;;0.50;0.50;;;2.50;96.90;;;;;;4151827;28;20049;-85
2020/12/26 02:35:28;;;;;;;0.30;0.30;;;2.50;96.90;;;;;;4181353;28;20057;-86
2020/12/26 02:37:29;;;;;;;0.20;0.20;;;2.50;97.00;;;;;;4161060;28;20054;-85
2020/12/26 02:39:30;;;;;;;2.42;1.08;;;2.50;97.10;;;;;;4148530;28;20072;-85
2020/12/26 02:41:32;;;;;;;0.30;0.30;;;2.50;97.10;;;;;;4181600;28;20544;-84
2020/12/26 02:43:33;;;;;;;0.55;0.35;;;2.50;97.10;;;;;;4180326;28;20049;-85
2020/12/26 02:45:35;;;;;;;0.45;0.45;;;2.50;97.20;;;;;;4165202;28;20038;-84
2020/12/26 02:47:36;;;;;;;0.20;0.20;;;2.50;97.20;;;;;;4149122;28;20058;-85
2020/12/26 02:49:37;;;;;;;0.43;0.43;;;2.50;97.20;;;;;;4147590;28;20045;-84
2020/12/26 02:51:38;;;;;;;0.30;0.30;;;2.40;97.50;;;;;;4151977;28;20068;-85
2020/12/26 02:53:40;;;;;;;2.78;1.00;;;2.40;97.40;;;;;;4164322;28;20067;-85
2020/12/26 02:55:41;;;;;;;0.63;0.45;;;2.50;97.40;;;;;;4172256;28;20452;-85
2020/12/26 02:57:43;;;;;;;0.17;0.17;;;2.40;97.40;;;;;;4148302;28;20060;-84
2020/12/26 02:59:44;;;;;;;0.30;0.30;;;2.40;97.40;;;;;;4148532;28;20064;-85
2020/12/26 03:01:45;;;;;;;0.38;0.38;;;2.40;97.30;;;;;;4161830;28;20041;-84
2020/12/26 03:03:47;;;;;;;0.38;0.38;;;2.40;97.50;;;;;;4184226;28;20106;-85
2020/12/26 03:05:48;;;;;;;0.20;0.20;;;2.40;97.50;;;;;;4164747;28;20113;-86
2020/12/26 03:07:49;;;;;;;0.30;0.30;;;2.40;97.50;;;;;;4146636;28;20060;-85
2020/12/26 03:09:50;;;;;;;0.52;0.52;;;2.40;97.40;;;;;;4147880;28;20082;-85
2020/12/26 03:11:52;;;;;;;0.40;0.40;;;2.40;97.50;;;;;;4164869;28;20049;-85
2020/12/26 03:13:53;;;;;;;0.80;0.57;;;2.40;97.40;;;;;;4194587;28;20541;-85
2020/12/26 03:15:57;;;;;;;0.20;0.20;;;2.40;97.50;;;;;;4180740;28;20135;-85
2020/12/26 03:17:58;;;;;;;5.05;1.10;;;2.40;97.50;;;;;;4148188;28;20065;-85
2020/12/26 03:20:00;;;;;;;0.30;0.30;;;2.40;97.50;;;;;;4139926;28;20050;-85
2020/12/26 03:22:01;;;;;;;1.90;0.38;;;2.30;97.40;;;;;;4132214;28;20054;-85
2020/12/26 03:24:02;;;;;;;0.45;0.28;;;2.40;97.50;;;;;;4131399;28;20046;-85
2020/12/26 03:26:04;;;;;;;0.30;0.30;;;2.40;97.50;;;;;;4155257;28;20136;-85
2020/12/26 03:28:05;;;;;;;0.20;0.20;;;2.40;97.50;;;;;;4166677;28;20464;-85
2020/12/26 03:30:06;;;;;;;0.40;0.40;;;2.40;97.50;;;;;;4147471;28;20049;-86
2020/12/26 03:32:08;;;;;;;0.60;0.60;;;2.40;97.60;;;;;;4130303;28;20054;-86
2020/12/26 03:34:09;;;;;;;0.40;0.40;;;2.40;97.60;;;;;;4131668;28;20049;-86
2020/12/26 03:36:11;;;;;;;0.40;0.35;;;2.40;97.70;;;;;;4146667;28;20058;-86
2020/12/26 03:38:12;;;;;;;0.32;0.32;;;2.40;97.60;;;;;;4150754;28;20045;-85
2020/12/26 03:40:13;;;;;;;0.40;0.40;;;2.40;97.60;;;;;;4130459;28;20129;-85
2020/12/26 03:42:14;;;;;;;0.20;0.20;;;2.40;97.60;;;;;;4133525;28;20058;-85
2020/12/26 03:44:16;;;;;;;0.82;0.82;;;2.40;97.70;;;;;;4131405;28;20046;-84
2020/12/26 03:46:17;;;;;;;0.30;0.30;;;2.30;97.70;;;;;;4126295;28;20054;-85
2020/12/26 03:48:18;;;;;;;0.95;0.95;;;2.40;97.60;;;;;;4130955;28;20066;-85
2020/12/26 03:50:19;;;;;;;0.30;0.30;;;2.40;97.60;;;;;;4146010;28;20145;-85
2020/12/26 03:52:21;;;;;;;0.40;0.40;;;2.30;97.70;;;;;;4154969;28;20061;-85
2020/12/26 03:54:22;;;;;;;0.35;0.35;;;2.40;97.70;;;;;;4116878;28;20051;-86
2020/12/26 03:56:25;;;;;;;0.30;0.30;;;2.40;97.70;;;;;;4163715;28;20058;-86
2020/12/26 03:58:26;;;;;;;0.68;0.68;;;2.30;97.60;;;;;;4163576;28;20323;-85
2020/12/26 04:00:27;;;;;;;0.20;0.20;;;2.30;97.70;;;;;;4163468;28;20532;-86
2020/12/26 04:02:29;;;;;;;0.50;0.50;;;2.40;97.60;;;;;;4147797;28;20054;-85
2020/12/26 04:04:30;;;;;;;1.48;0.30;;;2.30;97.60;;;;;;4139331;28;20100;-85
2020/12/26 04:06:32;;;;;;;0.30;0.30;;;2.30;97.50;;;;;;4124084;28;20060;-87
2020/12/26 04:08:33;;;;;;;2.05;0.50;;;2.30;97.60;;;;;;4147638;28;20141;-85
2020/12/26 04:10:34;;;;;;;1.60;0.73;;;2.30;97.50;;;;;;4130168;28;20051;-84
2020/12/26 04:12:36;;;;;;;0.32;0.32;;;2.30;97.50;;;;;;4161805;28;20530;-85
2020/12/26 04:14:37;;;;;;;0.40;0.40;;;2.30;97.50;;;;;;4127843;28;20053;-85
2020/12/26 04:16:39;;;;;;;0.40;0.40;;;2.30;97.60;;;;;;4160598;28;20041;-86
2020/12/26 04:18:40;;;;;;;0.20;0.20;;;2.30;97.50;;;;;;4130616;28;20047;-84
2020/12/26 04:20:42;;;;;;;0.20;0.20;;;2.30;97.40;;;;;;4130908;28;20058;-85
2020/12/26 04:22:43;;;;;;;0.30;0.30;;;2.30;97.60;;;;;;4129104;28;20046;-85
2020/12/26 04:24:44;;;;;;;0.20;0.20;;;2.30;97.60;;;;;;4127965;28;20504;-85
2020/12/26 04:26:45;;;;;;;0.20;0.20;;;2.30;97.50;;;;;;4146745;28;20061;-85
2020/12/26 04:28:48;;;;;;;0.40;0.40;;;2.30;97.50;;;;;;4130607;28;20061;-85
2020/12/26 04:30:49;;;;;;;0.32;0.32;;;2.30;97.50;;;;;;4130458;28;20056;-85
2020/12/26 04:32:51;;;;;;;0.47;0.47;;;2.30;97.80;;;;;;4131332;28;20505;-86
2020/12/26 04:34:52;;;;;;;0.30;0.30;;;2.30;97.60;;;;;;4160120;28;20049;-84
2020/12/26 04:36:53;;;;;;;0.22;0.22;;;2.30;97.60;;;;;;4167652;28;20055;-84
2020/12/26 04:38:55;;;;;;;1.33;0.40;;;2.30;97.40;;;;;;4129503;28;20054;-85
2020/12/26 04:40:57;;;;;;;0.60;0.60;;;2.30;97.50;;;;;;4130787;28;20077;-87
2020/12/26 04:42:59;;;;;;;0.50;0.50;;;2.30;97.80;;;;;;4157940;28;20050;-86
2020/12/26 04:45:00;;;;;;;0.38;0.38;;;2.20;97.60;;;;;;4163119;28;20140;-86
2020/12/26 04:47:06;;;;;;;0.50;0.50;;;2.20;97.60;;;;;;4130612;28;20051;-85
2020/12/26 04:49:11;;;;;;;0.38;0.38;;;2.20;97.60;;;;;;4168908;28;20049;-85
2020/12/26 04:51:14;;;;;;;0.40;0.40;;;2.20;97.50;;;;;;4116657;28;20074;-86
2020/12/26 04:53:17;;;;;;;0.40;0.40;;;2.20;97.50;;;;;;4163264;28;20049;-86
2020/12/26 04:55:18;;;;;;;0.32;0.32;;;2.20;97.60;;;;;;4130979;28;20065;-86
2020/12/26 04:57:19;;;;;;;0.57;0.50;;;2.20;97.60;;;;;;4120418;28;20061;-86
2020/12/26 04:59:21;;;;;;;0.65;0.65;;;2.20;97.70;;;;;;4141465;28;20046;-86
2020/12/26 05:01:22;;;;;;;0.52;0.52;;;2.20;97.60;;;;;;4130532;28;20388;-85
2020/12/26 05:03:27;;;;;;;0.52;0.52;;;2.20;97.70;;;;;;4162683;28;20053;-85
2020/12/26 05:05:30;;;;;;;0.28;0.28;;;2.10;97.70;;;;;;4131152;28;20054;-86
2020/12/26 05:07:32;;;;;;;0.77;0.77;;;2.20;97.90;;;;;;4127954;28;20054;-85
2020/12/26 05:09:33;;;;;;;0.65;0.65;;;2.20;97.70;;;;;;4128663;28;20047;-86
2020/12/26 05:11:35;;;;;;;0.50;0.50;;;2.10;97.70;;;;;;4146896;28;20137;-87
2020/12/26 05:13:42;;;;;;;1.38;0.80;;;2.10;97.70;;;;;;4156601;28;20046;-86
2020/12/26 05:15:43;;;;;;;0.50;0.50;;;2.10;97.80;;;;;;4146985;28;20078;-85
2020/12/26 05:17:44;;;;;;;0.30;0.30;;;2.10;97.80;;;;;;4146069;28;20049;-85
2020/12/26 05:19:47;;;;;;;0.40;0.40;;;2.10;97.70;;;;;;4154625;28;20085;-86
2020/12/26 05:22:02;;;;;;;0.60;0.40;;;2.20;97.90;;;;;;4146726;28;20054;-85
2020/12/26 05:24:08;;;;;;;1.75;1.55;;;2.10;97.80;;;;;;4115124;28;20065;-86
2020/12/26 05:26:10;;;;;;;0.85;0.85;;;2.10;97.90;;;;;;4153009;28;20054;-88
2020/12/26 05:28:21;;;;;;;0.30;0.30;;;2.10;97.80;;;;;;4160170;28;20132;-85
2020/12/26 05:30:22;;;;;;;1.45;0.50;;;2.10;97.80;;;;;;4118167;28;20137;-85
2020/12/26 05:32:24;;;;;;;0.30;0.30;;;2.10;97.90;;;;;;4154434;28;20154;-85
2020/12/26 05:34:35;;;;;;;0.68;0.50;;;2.10;97.70;;;;;;4161207;28;20133;-86
2020/12/26 05:36:37;;;;;;;0.57;0.57;;;2.10;97.60;;;;;;4141739;28;20567;-85
2020/12/26 05:38:38;;;;;;;0.30;0.30;;;2.10;97.40;;;;;;4133387;28;20053;-85
2020/12/26 05:40:47;;;;;;;0.80;0.40;;;2.10;97.40;;;;;;4133252;28;20494;-85
2020/12/26 05:42:49;;;;;;;0.80;0.65;;;2.10;97.70;;;;;;4134660;28;20056;-85
2020/12/26 05:44:50;;;;;;;0.40;0.40;;;2.00;97.80;;;;;;4133799;28;20149;-85
2020/12/26 05:46:54;;;;;;;0.73;0.73;;;2.00;97.80;;;;;;4165296;28;20088;-86
2020/12/26 05:48:55;;;;;;;0.50;0.50;;;2.00;97.90;;;;;;4136864;28;20130;-86
2020/12/26 05:51:00;;;;;;;0.30;0.30;;;2.00;98.10;;;;;;4166209;28;20148;-86
2020/12/26 05:53:01;;;;;;;0.43;0.43;;;2.00;98.40;;;;;;4158711;28;20128;-86
2020/12/26 05:55:13;;;;;;;0.73;0.40;;;1.90;98.50;;;;;;4140173;28;20419;-86
2020/12/26 05:57:15;;;;;;;0.20;0.20;;;2.00;98.50;;;;;;4134834;28;20050;-86
2020/12/26 05:59:25;;;;;;;0.20;0.20;;;2.00;98.60;;;;;;4163473;28;20053;-86
2020/12/26 06:01:26;;;;;;;0.45;0.45;;;1.90;98.60;;;;;;4134124;28;20680;-86
2020/12/26 06:03:33;;;;;;;0.90;0.65;;;2.00;98.60;;;;;;4147519;28;20058;-86
2020/12/26 06:05:34;;;;;;;2.75;0.45;;;2.00;98.60;;;;;;4150504;28;20058;-86
2020/12/26 06:07:36;;;;;;;2.78;1.15;;;1.90;98.60;;;;;;4149284;28;20080;-86
2020/12/26 06:09:38;;;;;;;0.40;0.40;;;2.00;98.80;;;;;;4159729;28;20059;-86
2020/12/26 06:11:39;;;;;;;0.88;0.88;;;2.00;98.80;;;;;;4149087;28;20065;-85
2020/12/26 06:13:40;;;;;;;5.93;0.50;;;2.00;98.70;;;;;;4132049;28;20048;-85
2020/12/26 06:15:48;;;;;;;0.50;0.28;;;2.00;98.70;;;;;;4163474;28;20131;-85
2020/12/26 06:17:49;;;;;;;0.47;0.47;;;2.00;98.60;;;;;;4163155;28;20533;-85
2020/12/26 06:20:03;;;;;;;1.25;0.40;;;2.00;98.70;;;;;;4172645;28;20545;-86
2020/12/26 06:22:05;;;;;;;0.28;0.28;;;1.90;98.70;;;;;;4152110;28;20518;-86
2020/12/26 06:24:06;;;;;;;0.43;0.43;;;2.00;98.70;;;;;;4155774;28;20528;-88
2020/12/26 06:26:08;;;;;;;0.60;0.60;;;1.90;98.70;;;;;;4146052;28;20054;-86
2020/12/26 06:28:22;;;;;;;0.60;0.60;;;1.90;98.70;;;;;;4124155;28;20141;-86
2020/12/26 06:30:28;;;;;;;2.65;0.30;;;1.90;98.80;;;;;;4176004;28;20049;-86
2020/12/26 06:32:29;;;;;;;0.20;0.20;;;1.90;98.70;;;;;;4149358;28;20562;-86
2020/12/26 06:34:31;;;;;;;1.05;0.57;;;1.90;98.80;;;;;;4132513;28;20054;-85
2020/12/26 06:36:32;;;;;;;1.75;1.65;;;1.90;98.80;;;;;;4152960;28;20053;-86
2020/12/26 06:38:33;;;;;;;0.65;0.65;;;1.90;98.80;;;;;;4128696;28;20466;-85
2020/12/26 06:40:35;;;;;;;0.20;0.20;;;1.90;98.70;;;;;;4128815;28;20042;-85
2020/12/26 06:42:40;;;;;;;0.20;0.20;;;1.90;98.90;;;;;;4132155;28;20057;-85
2020/12/26 06:44:42;;;;;;;0.50;0.50;;;1.90;98.90;;;;;;4133107;28;20058;-85
2020/12/26 06:46:43;;;;;;;0.50;0.50;;;1.90;98.90;;;;;;4125233;28;20064;-86
2020/12/26 06:48:44;;;;;;;0.73;0.52;;;1.80;98.90;;;;;;4131282;28;20548;-87
2020/12/26 06:50:46;;;;;;;3.47;0.85;;;1.80;99.00;;;;;;4131422;28;20622;-85
2020/12/26 06:53:01;;;;;;;0.83;0.83;;;1.80;99.10;;;;;;4153129;28;20054;-86
2020/12/26 06:55:03;;;;;;;0.57;0.55;;;1.80;99.00;;;;;;4137682;28;20049;-85
2020/12/26 06:57:04;;;;;;;0.35;0.35;;;1.80;99.00;;;;;;4116220;28;20503;-87
2020/12/26 06:59:09;;;;;;;0.20;0.20;;;1.90;99.10;;;;;;4172187;28;20132;-86
2020/12/26 07:01:23;;;;;;;0.35;0.35;;;1.90;99.10;;;;;;4153627;28;20045;-87
2020/12/26 07:03:30;;;;;;;0.20;0.20;;;1.90;99.10;;;;;;4131406;28;20086;-88
2020/12/26 07:05:38;;;;;;;0.28;0.28;;;1.90;99.20;;;;;;4137580;28;20042;-89
2020/12/26 07:07:39;;;;;;;0.88;0.88;;;1.90;99.00;;;;;;4133826;28;20137;-89
2020/12/26 07:09:47;;;;;;;0.35;0.35;;;1.90;99.00;;;;;;4147650;28;20049;-90
2020/12/26 07:11:52;;;;;;;0.20;0.20;;;2.00;99.10;;;;;;4164652;28;20446;-89
2020/12/26 07:13:54;;;;;;;0.30;0.30;;;2.00;98.90;;;;;;4131178;28;20046;-88
2020/12/26 07:15:58;;;;;;;0.30;0.30;;;2.00;99.00;;;;;;4142558;28;20140;-90
2020/12/26 07:18:23;;;;;;;0.35;0.35;;;2.00;99.00;;;;;;4165300;28;20063;-89
2020/12/26 07:20:27;;;;;;;0.13;0.13;;;2.00;98.80;;;;;;4170958;28;20057;-89
2020/12/26 07:22:30;;;;;;;0.82;0.82;;;2.00;98.90;;;;;;4156908;28;20049;-89
2020/12/26 07:24:35;;;;;;;1.15;0.95;;;2.00;98.80;;;;;;4196596;28;20132;-87
2020/12/26 07:26:37;;;;;;;1.08;1.00;;;2.00;98.90;;;;;;4177828;28;20084;-86
2020/12/26 07:28:41;;;;;;;0.30;0.30;;;2.00;99.00;;;;;;4139821;28;20120;-90
2020/12/26 07:30:43;;;;;;;0.30;0.30;;;2.00;98.80;;;;;;4153749;28;20042;-89
2020/12/26 07:32:57;;;;;;;0.40;0.40;;;2.00;98.90;;;;;;4148918;28;20045;-91
2020/12/26 07:34:59;;;;;;;0.40;0.40;;;2.00;98.90;;;;;;4179627;28;20041;-90
2020/12/26 07:37:01;;;;;;;1.05;0.50;;;2.00;98.80;;;;;;4178004;28;20148;-90
2020/12/26 07:39:03;;;;;;;0.60;0.47;;;2.00;98.80;;;;;;4179850;28;20059;-88
2020/12/26 07:41:10;;;;;;;0.65;0.63;;;2.00;98.70;;;;;;4179549;28;20044;-88
2020/12/26 07:43:13;;;;;;;0.20;0.20;;;2.00;98.80;;;;;;4178222;28;20084;-90
2020/12/26 07:45:22;;;;;;;0.32;0.32;;;2.00;98.90;;;;;;4148334;28;20042;-89
2020/12/26 07:47:23;;;;;;;0.70;0.70;;;2.00;98.90;;;;;;4162416;28;20046;-87
2020/12/26 07:49:24;;;;;;;0.28;0.28;;;2.00;98.80;;;;;;4178450;28;20048;-90
2020/12/26 07:51:26;;;;;;;0.30;0.30;;;2.00;98.80;;;;;;4167376;28;20044;-90
2020/12/26 07:53:42;;;;;;;0.30;0.30;;;2.00;98.70;;;;;;4190238;28;20041;-86
2020/12/26 07:55:43;;;;;;;0.50;0.50;;;2.00;98.80;;;;;;4186177;28;20438;-85
2020/12/26 07:57:45;;;;;;;0.32;0.32;;;2.00;98.90;;;;;;4151803;28;20129;-86
2020/12/26 07:59:46;;;;;;;0.63;0.63;;;2.00;99.00;;;;;;4170641;28;20064;-89
2020/12/26 08:01:51;;;;;;;0.80;0.60;;;2.00;99.00;;;;;;4146698;28;20095;-88
2020/12/26 08:03:59;;;;;;;1.02;0.82;;;2.00;98.90;;;;;;4145188;28;20121;-89
2020/12/26 08:06:01;;;;;;;0.45;0.40;;;2.00;98.90;;;;;;4180612;28;20137;-90
2020/12/26 08:08:15;;;;;;;0.52;0.52;;;2.00;99.00;;;;;;4179235;28;20133;-87
2020/12/26 08:10:16;;;;;;;0.10;0.10;;;2.00;98.90;;;;;;4155773;28;20049;-88
2020/12/26 08:12:18;;;;;;;0.75;0.73;;;2.10;98.80;;;;;;4147343;28;20104;-88
2020/12/26 08:14:20;;;;;;;0.30;0.30;;;2.10;98.80;;;;;;4179388;28;20040;-92
2020/12/26 08:16:22;;;;;;;0.57;0.57;;;2.10;99.00;;;;;;4166677;28;20128;-88
2020/12/26 08:18:23;;;;;;;0.30;0.30;;;2.10;98.90;;;;;;4145965;28;20058;-90
2020/12/26 08:20:25;;;;;;;0.73;0.68;;;2.10;98.90;;;;;;4147399;28;20058;-89
2020/12/26 08:22:27;;;;;;;0.68;0.68;;;2.10;98.80;;;;;;4147007;28;20054;-89
2020/12/26 08:24:29;;;;;;;0.40;0.40;;;2.10;98.80;;;;;;4163293;28;20132;-90
2020/12/26 08:26:32;;;;;;;0.50;0.43;;;2.20;98.70;;;;;;4146916;28;20157;-91
2020/12/26 08:28:35;;;;;;;0.50;0.35;;;2.20;98.80;;;;;;4146825;28;20049;-90
2020/12/26 08:30:38;;;;;;;0.40;0.40;;;2.20;98.80;;;;;;4144767;28;20054;-91
2020/12/26 08:33:07;;;;;;;0.35;0.35;;;2.20;98.60;;;;;;4178677;28;20128;-86
2020/12/26 08:35:09;;;;;;;0.50;0.50;;;2.20;98.70;;;;;;4195793;28;20059;-88
2020/12/26 08:37:38;;;;;;;0.13;0.13;;;2.20;98.60;;;;;;4161977;28;20053;-87
2020/12/26 08:39:40;;;;;;;0.52;0.52;;;2.20;98.60;;;;;;4164328;28;20045;-88
2020/12/26 08:41:41;;;;;;;0.60;0.45;;;2.30;98.70;;;;;;4162606;28;20128;-88
2020/12/26 08:43:42;;;;;;;0.50;0.50;;;2.30;98.70;;;;;;4172267;28;20050;-87
2020/12/26 08:45:45;;;;;;;0.20;0.20;;;2.30;98.70;;;;;;4182221;28;20091;-87
2020/12/26 08:47:46;;;;;;;0.68;0.57;;;2.40;98.40;;;;;;4161838;28;20498;-85
2020/12/26 08:49:47;;;;;;;0.50;0.50;;;2.40;98.40;;;;;;4180766;28;20052;-86
2020/12/26 08:51:48;;;;;;;0.90;0.75;;;2.40;98.40;;;;;;4156849;28;20444;-87
2020/12/26 08:53:51;;;;;;;7.22;0.70;;;2.40;98.50;;;;;;4162700;28;20060;-87
2020/12/26 08:55:55;;;;;;;0.70;0.60;;;2.40;98.20;;;;;;4170331;28;20053;-88
2020/12/26 08:57:58;;;;;;;0.40;0.40;;;2.40;98.30;;;;;;4174995;28;20055;-87
2020/12/26 09:00:18;;;;;;;0.65;0.65;;;2.50;98.30;;;;;;4155040;28;20448;-87
2020/12/26 09:02:19;;;;;;;0.15;0.15;;;2.50;98.20;;;;;;4161372;28;20059;-88
2020/12/26 09:04:21;;;;;;;0.38;0.38;;;2.50;97.90;;;;;;4182959;28;20065;-89
2020/12/26 09:06:43;;;;;;;0.68;0.68;;;2.50;98.00;;;;;;4180114;28;20061;-87
2020/12/26 09:08:44;;;;;;;0.38;0.38;;;2.50;97.90;;;;;;4191390;28;20462;-92
2020/12/26 09:11:08;;;;;;;0.65;0.65;;;2.50;97.50;;;;;;4176984;28;20053;-87
2020/12/26 09:13:11;;;;;;;0.30;0.30;;;2.50;97.20;;;;;;4164046;28;20136;-88
2020/12/26 09:15:12;;;;;;;0.98;0.98;;;2.50;97.50;;;;;;4150151;28;20045;-88
2020/12/26 09:17:13;;;;;;;1.17;1.10;;;2.50;97.60;;;;;;4148370;28;20060;-87
2020/12/26 09:19:15;;;;;;;0.40;0.30;;;2.50;97.70;;;;;;4162343;28;20573;-88
2020/12/26 09:21:26;;;;;;;0.60;0.60;;;2.50;97.60;;;;;;4161361;28;20057;-87
2020/12/26 09:23:37;;;;;;;0.88;0.82;;;2.60;97.70;;;;;;4148933;28;20145;-86
2020/12/26 09:25:38;;;;;;;0.57;0.57;;;2.60;97.50;;;;;;4164178;28;20056;-86
2020/12/26 09:27:40;;;;;;;0.25;0.25;;;2.60;97.20;;;;;;4162893;28;20062;-86
2020/12/26 09:29:41;;;;;;;0.60;0.60;;;2.60;97.10;;;;;;4166431;28;20045;-90
2020/12/26 09:31:42;;;;;;;0.68;0.50;;;2.60;96.90;;;;;;4164511;28;20049;-91
2020/12/26 09:33:43;;;;;;;0.50;0.50;;;2.60;96.80;;;;;;4145505;28;20046;-90
2020/12/26 09:35:45;;;;;;;0.88;0.88;;;2.70;97.00;;;;;;4160080;28;20136;-90
2020/12/26 09:37:53;;;;;;;0.30;0.30;;;2.70;96.90;;;;;;4157417;28;20057;-90
2020/12/26 09:39:54;;;;;;;0.43;0.43;;;2.80;96.80;;;;;;4149918;28;20512;-89
2020/12/26 09:41:55;;;;;;;1.42;1.35;;;2.90;96.10;;;;;;4152856;28;20677;-89
2020/12/26 09:43:56;;;;;;;0.90;0.77;;;2.90;96.20;;;;;;4166648;28;20507;-89
2020/12/26 09:45:58;;;;;;;0.38;0.38;;;2.90;96.00;;;;;;4152451;28;20050;-90
2020/12/26 09:47:59;;;;;;;0.93;0.70;;;3.00;95.80;;;;;;4152585;28;20422;-90
2020/12/26 09:50:00;;;;;;;0.32;0.32;;;3.00;95.80;;;;;;4140017;28;20133;-90
2020/12/26 09:52:02;;;;;;;0.40;0.40;;;3.00;95.90;;;;;;4152067;28;20049;-91
2020/12/26 09:54:04;;;;;;;0.20;0.20;;;3.00;96.00;;;;;;4151554;28;20052;-90
2020/12/26 09:56:06;;;;;;;0.20;0.20;;;3.00;95.70;;;;;;4149705;28;20049;-86
2020/12/26 09:58:07;;;;;;;0.77;0.57;;;3.10;95.50;;;;;;4134777;28;20085;-89
2020/12/26 10:00:09;;;;;;;0.20;0.20;;;3.00;95.60;;;;;;4149273;28;20050;-87
2020/12/26 10:02:10;;;;;;;0.63;0.63;;;3.00;95.20;;;;;;4150277;28;20076;-93
2020/12/26 10:04:28;;;;;;;0.65;0.65;;;3.10;95.40;;;;;;4166449;28;20046;-92
2020/12/26 10:06:29;;;;;;;0.30;0.30;;;3.10;95.30;;;;;;4163995;28;20049;-91
2020/12/26 10:08:30;;;;;;;1.35;0.43;;;3.20;95.30;;;;;;4150643;28;20049;-92
2020/12/26 10:10:32;;;;;;;0.38;0.38;;;3.20;95.10;;;;;;4148307;28;20054;-92
2020/12/26 10:12:33;;;;;;;1.00;0.60;;;3.30;95.20;;;;;;4136167;28;20082;-90
2020/12/26 10:14:34;;;;;;;1.40;0.55;;;3.40;94.90;;;;;;4152531;28;20132;-92
2020/12/26 10:16:35;;;;;;;0.28;0.28;;;3.40;93.40;;;;;;4146105;28;20138;-93
2020/12/26 10:18:37;;;;;;;0.68;0.45;;;3.40;93.80;;;;;;4160686;28;20147;-92
2020/12/26 10:20:38;;;;;;;0.10;0.10;;;3.50;93.50;;;;;;4183099;28;20134;-93
2020/12/26 10:22:39;;;;;;;0.20;0.20;;;3.60;93.50;;;;;;4165894;28;20052;-93
2020/12/26 10:24:41;;;;;;;0.20;0.20;;;3.60;93.60;;;;;;4165434;28;20132;-94
2020/12/26 10:26:42;;;;;;;0.55;0.55;;;3.60;92.90;;;;;;4150106;28;20502;-93
2020/12/26 10:28:44;;;;;;;0.15;0.15;;;3.60;93.40;;;;;;4165151;28;20569;-93
2020/12/26 10:30:48;;;;;;;0.60;0.40;;;3.50;93.50;;;;;;4172687;28;20488;-93
2020/12/26 10:32:49;;;;;;;0.25;0.25;;;3.50;93.70;;;;;;4166188;28;20049;-90
2020/12/26 10:34:50;;;;;;;1.17;0.75;;;3.60;94.00;;;;;;4173204;28;20131;-93
2020/12/26 10:36:52;;;;;;;0.45;0.40;;;3.50;92.90;;;;;;4161824;28;20068;-87
2020/12/26 10:38:53;;;;;;;1.17;0.60;;;3.50;93.10;;;;;;4149015;28;20071;-89
2020/12/26 10:40:54;;;;;;;0.20;0.20;;;3.50;93.50;;;;;;4179630;28;20051;-91
2020/12/26 10:42:55;;;;;;;0.43;0.43;;;3.60;93.50;;;;;;4163959;28;20049;-89
2020/12/26 10:44:57;;;;;;;0.30;0.28;;;3.70;93.50;;;;;;4177136;28;20140;-88
2020/12/26 10:46:58;;;;;;;1.23;0.63;;;3.80;93.50;;;;;;4186832;28;20544;-88
2020/12/26 10:49:00;;;;;;;0.60;0.60;;;3.90;93.30;;;;;;4161711;28;20048;-92